Augusta, Arkansas
Current Conditions -  °F | °C
As of 1:56 PM on Monday 26 Jan 2015 (Local Time) from KSRC Reporting Station
Clear Clear  
Wind Chill: 56°   Ceiling: Unl
Heat Index: 56°   Visibility: 10mi
Dew Point: 31°   Wind: 8mph
Humidity: 39%   Direction: 250°WSW
Pressure: 30.01"   Gusts: NA
Location:  35.28°N, 91.37°W
Report Text: KSRC 261956Z AUTO 25007KT 10SM CLR 13/M01 A3001 RMK AO2 SLP172 T01331006 TSNO
Loading
Personal Weather Stations






























Interactive Weather Map New forecast layout! Learn more

10-Day Weather Forecast

Advertisements
Track Severe Weather on mobile